EDW92 LSZH-SKBO
Flight info
| Callsign | EDW92 |
|---|---|
| Flight time | N/A |
| Altitude | 31000 |
| Route | VEBIT T50 ROTOS Z669 ULMES DCT VADAR DCT NINTU DCT MEBAK/N0468F330 DCT REPSI DCT LERGA DCT MINSO DCT NARAK DCT AGN DCT PIPOR L866 PPN N976 DGO DCT NEA DCT ZMR L155 ADORO DCT ERPES/M081F340 DCT 38N020W 33N030W 25N040W/M081F360 DCT LEARP/N0469F380 DCT BGI DCT ILVAS UM662 ESNAP UW52 MIQ UP671 IMBAT UP533 PBL UW50 BNS UP533 KIKAS DCT DOPLO DOPLO5W |
| Aircraft | A343/H-SDE2E3FGHIJ4J5M1RWXY/LB1D1 |
Departure
| Time | 2026-04-26 04:46 |
|---|---|
| Airport | Zürich Airport (LSZH) |
Arrival
| Time | N/A |
|---|---|
| Airport | El Dorado International Airport (SKBO) |
| Time | Latitude | Longitude | Altitude | Speed | Heading |
|---|---|---|---|---|---|
| 2026-04-26 03:59 | 47.46157 | 8.55779 | 1407 ft | 0 kts | 186° |
| 2026-04-26 04:35 | 47.46171 | 8.55782 | 1415 ft | 4 kts | 186° |
| 2026-04-26 04:35 | 47.46193 | 8.55785 | 1411 ft | 2 kts | 186° |
| 2026-04-26 04:36 | 47.46217 | 8.55788 | 1406 ft | 4 kts | 193° |
| 2026-04-26 04:36 | 47.46233 | 8.55805 | 1415 ft | 4 kts | 266° |
| 2026-04-26 04:36 | 47.46231 | 8.55842 | 1412 ft | 4 kts | 276° |
| 2026-04-26 04:36 | 47.46229 | 8.55867 | 1409 ft | 0 kts | 276° |
| 2026-04-26 04:40 | 47.46232 | 8.55825 | 1406 ft | 10 kts | 276° |
| 2026-04-26 04:40 | 47.46243 | 8.55672 | 1404 ft | 18 kts | 276° |
| 2026-04-26 04:40 | 47.46257 | 8.55482 | 1405 ft | 19 kts | 276° |
| 2026-04-26 04:40 | 47.46271 | 8.55285 | 1402 ft | 20 kts | 276° |
| 2026-04-26 04:41 | 47.46285 | 8.55083 | 1397 ft | 20 kts | 276° |
| 2026-04-26 04:41 | 47.46300 | 8.54876 | 1399 ft | 16 kts | 276° |
| 2026-04-26 04:41 | 47.46317 | 8.54759 | 1386 ft | 14 kts | 298° |
| 2026-04-26 04:41 | 47.46413 | 8.54671 | 1386 ft | 18 kts | 335° |
| 2026-04-26 04:42 | 47.46536 | 8.54585 | 1401 ft | 21 kts | 335° |
| 2026-04-26 04:42 | 47.46682 | 8.54485 | 1384 ft | 26 kts | 335° |
| 2026-04-26 04:42 | 47.46861 | 8.54377 | 1382 ft | 29 kts | 334° |
| 2026-04-26 04:42 | 47.47038 | 8.54254 | 1384 ft | 27 kts | 335° |
| 2026-04-26 04:43 | 47.47199 | 8.54143 | 1386 ft | 24 kts | 335° |
| 2026-04-26 04:43 | 47.47346 | 8.54043 | 1401 ft | 22 kts | 335° |
| 2026-04-26 04:43 | 47.47473 | 8.53954 | 1407 ft | 19 kts | 335° |
| 2026-04-26 04:43 | 47.47579 | 8.53872 | 1408 ft | 16 kts | 322° |
| 2026-04-26 04:44 | 47.47604 | 8.53743 | 1411 ft | 12 kts | 255° |
| 2026-04-26 04:44 | 47.47559 | 8.53656 | 1408 ft | 10 kts | 213° |
| 2026-04-26 04:44 | 47.47489 | 8.53647 | 1410 ft | 11 kts | 162° |
| 2026-04-26 04:44 | 47.47463 | 8.53668 | 1399 ft | 2 kts | 152° |
| 2026-04-26 04:45 | 47.47385 | 8.53723 | 1405 ft | 34 kts | 154° |
| 2026-04-26 04:45 | 47.46982 | 8.54000 | 1386 ft | 92 kts | 155° |
| 2026-04-26 04:45 | 47.46253 | 8.54502 | 1400 ft | 138 kts | 155° |
| 2026-04-26 04:45 | 47.45256 | 8.55190 | 1421 ft | 175 kts | 155° |
| 2026-04-26 04:46 | 47.44161 | 8.55929 | 2013 ft | 169 kts | 155° |
| 2026-04-26 04:46 | 47.43139 | 8.56752 | 2610 ft | 167 kts | 144° |
| 2026-04-26 04:46 | 47.42237 | 8.57899 | 2816 ft | 181 kts | 115° |
| 2026-04-26 04:46 | 47.42159 | 8.59757 | 2962 ft | 195 kts | 68° |
| 2026-04-26 04:47 | 47.43129 | 8.61264 | 3153 ft | 220 kts | 24° |
| 2026-04-26 04:47 | 47.44692 | 8.61441 | 3449 ft | 245 kts | 346° |
| 2026-04-26 04:47 | 47.46134 | 8.60026 | 3925 ft | 260 kts | 308° |
| 2026-04-26 04:47 | 47.46769 | 8.57522 | 4552 ft | 267 kts | 271° |
| 2026-04-26 04:48 | 47.45949 | 8.52192 | 6014 ft | 268 kts | 258° |
| 2026-04-26 04:48 | 47.45555 | 8.49488 | 6739 ft | 271 kts | 256° |
| 2026-04-26 04:48 | 47.44832 | 8.46910 | 7389 ft | 274 kts | 239° |
| 2026-04-26 04:49 | 47.43760 | 8.44558 | 8048 ft | 278 kts | 235° |
| 2026-04-26 04:49 | 47.42621 | 8.42226 | 8677 ft | 282 kts | 236° |
| 2026-04-26 04:49 | 47.41475 | 8.39859 | 9311 ft | 285 kts | 236° |
| 2026-04-26 04:49 | 47.40328 | 8.37460 | 9951 ft | 288 kts | 237° |
| 2026-04-26 04:50 | 47.39183 | 8.35013 | 10476 ft | 294 kts | 239° |
| 2026-04-26 04:50 | 47.38142 | 8.32338 | 10736 ft | 308 kts | 244° |
| 2026-04-26 04:50 | 47.37125 | 8.29476 | 10995 ft | 322 kts | 244° |
| 2026-04-26 04:50 | 47.36070 | 8.26490 | 11250 ft | 335 kts | 244° |
| 2026-04-26 04:51 | 47.34969 | 8.23376 | 11502 ft | 349 kts | 244° |
| 2026-04-26 04:51 | 47.33831 | 8.20162 | 11838 ft | 358 kts | 244° |
| 2026-04-26 04:51 | 47.32661 | 8.16879 | 12307 ft | 364 kts | 243° |
| 2026-04-26 04:51 | 47.31478 | 8.13563 | 12821 ft | 368 kts | 244° |
| 2026-04-26 04:52 | 47.30285 | 8.10205 | 13364 ft | 372 kts | 243° |
| 2026-04-26 04:52 | 47.29078 | 8.06813 | 13904 ft | 376 kts | 243° |